createdAt,value
2019-01-15T00:02:11.613Z,2.04
2019-01-15T00:04:39.957Z,2.07
2019-01-15T00:07:08.550Z,2.09
2019-01-15T00:09:36.854Z,1.94
2019-01-15T00:12:07.916Z,2.04
2019-01-15T00:14:35.305Z,2.15
2019-01-15T00:17:03.640Z,2.15
2019-01-15T00:19:31.946Z,2.24
2019-01-15T00:22:00.246Z,2.26
2019-01-15T00:24:28.582Z,2.33
2019-01-15T00:26:56.890Z,2.23
2019-01-15T00:29:25.215Z,2.29
2019-01-15T00:31:53.527Z,2.17
2019-01-15T00:34:21.869Z,2.27
2019-01-15T00:36:50.482Z,2.18
2019-01-15T00:39:18.786Z,2.07
2019-01-15T00:41:47.119Z,2.73
2019-01-15T00:44:15.719Z,2.61
2019-01-15T00:46:44.045Z,2.66
2019-01-15T00:49:12.350Z,2.12
2019-01-15T00:51:40.674Z,2.68
2019-01-15T00:54:09.038Z,1.91
2019-01-15T00:56:37.434Z,1.87
2019-01-15T00:59:05.807Z,2.36
2019-01-15T01:01:34.192Z,2.50
2019-01-15T01:04:02.583Z,2.49
2019-01-15T01:06:32.918Z,2.68
2019-01-15T01:09:01.027Z,2.07
2019-01-15T01:11:29.763Z,2.14
2019-01-15T01:13:58.258Z,2.12
2019-01-15T01:16:26.563Z,2.21
2019-01-15T01:18:54.896Z,2.15
2019-01-15T01:21:23.596Z,2.11
2019-01-15T01:23:51.925Z,2.15
2019-01-15T01:26:20.269Z,2.14
2019-01-15T01:28:48.597Z,2.15
2019-01-15T01:31:16.979Z,2.12
2019-01-15T01:33:45.355Z,2.20
2019-01-15T01:36:13.752Z,2.25
2019-01-15T01:38:42.179Z,2.30
2019-01-15T01:41:10.566Z,2.32
2019-01-15T01:43:38.938Z,2.29
2019-01-15T01:46:07.262Z,2.20
2019-01-15T01:48:35.568Z,2.32
2019-01-15T01:51:03.970Z,2.45
2019-01-15T01:53:32.660Z,2.44
2019-01-15T01:56:01.000Z,2.52
2019-01-15T01:58:29.308Z,2.49
2019-01-15T02:00:57.602Z,2.50
2019-01-15T02:03:25.933Z,2.47
2019-01-15T02:05:54.243Z,2.42
2019-01-15T02:08:22.643Z,2.41
2019-01-15T02:10:50.948Z,2.56
2019-01-15T02:13:19.609Z,2.52
2019-01-15T02:15:48.304Z,2.61
2019-01-15T02:18:16.695Z,2.38
2019-01-15T02:20:45.001Z,2.52
2019-01-15T02:23:13.326Z,2.41
2019-01-15T02:25:41.635Z,2.68
2019-01-15T02:28:10.242Z,2.55
2019-01-15T02:30:38.608Z,2.61
2019-01-15T02:33:06.978Z,2.54
2019-01-15T02:35:35.468Z,2.53
2019-01-15T02:38:04.147Z,2.62
2019-01-15T02:40:32.481Z,2.64
2019-01-15T02:43:01.216Z,2.46
2019-01-15T02:45:29.605Z,2.50
2019-01-15T02:47:58.196Z,2.61
2019-01-15T02:50:26.519Z,2.57
2019-01-15T02:52:54.829Z,2.45
2019-01-15T02:55:23.131Z,2.58
2019-01-15T02:57:52.797Z,2.56
2019-01-15T03:00:24.911Z,2.68
2019-01-15T03:02:53.579Z,2.62
2019-01-15T03:05:22.188Z,2.71
2019-01-15T03:07:50.651Z,2.74
2019-01-15T03:10:20.597Z,2.58
2019-01-15T03:12:55.740Z,2.70
2019-01-15T03:15:21.551Z,2.73
2019-01-15T03:17:49.850Z,2.68
2019-01-15T03:20:18.623Z,2.67
2019-01-15T03:22:47.000Z,2.70
2019-01-15T03:25:15.998Z,2.54
2019-01-15T03:27:44.574Z,2.42
2019-01-15T03:30:19.095Z,2.55
2019-01-15T03:32:47.488Z,2.36
2019-01-15T03:35:15.809Z,2.33
2019-01-15T03:37:44.555Z,2.42
2019-01-15T03:40:18.103Z,2.33
2019-01-15T03:42:46.494Z,2.29
2019-01-15T03:45:15.049Z,2.27
2019-01-15T03:47:43.509Z,2.17
2019-01-15T03:50:12.151Z,2.24
2019-01-15T03:52:40.484Z,2.21
2019-01-15T03:55:11.131Z,2.05
2019-01-15T03:57:39.601Z,2.20
2019-01-15T04:00:11.073Z,2.17
2019-01-15T04:02:39.643Z,2.12
2019-01-15T04:05:08.972Z,1.92
2019-01-15T04:07:37.650Z,1.80
2019-01-15T04:10:09.471Z,1.92
2019-01-15T04:12:37.889Z,2.01
2019-01-15T04:15:12.091Z,1.95
2019-01-15T04:17:40.400Z,1.94
2019-01-15T04:20:14.907Z,2.10
2019-01-15T04:22:43.751Z,2.39
2019-01-15T04:25:13.526Z,2.43
2019-01-15T04:27:41.832Z,2.33
2019-01-15T04:30:18.922Z,2.26
2019-01-15T04:32:47.245Z,2.67
2019-01-15T04:35:15.631Z,2.39
2019-01-15T04:37:44.719Z,2.37
2019-01-15T04:40:16.489Z,2.42
2019-01-15T04:42:44.819Z,2.46
2019-01-15T04:45:15.868Z,2.50
2019-01-15T04:47:44.250Z,2.65
2019-01-15T04:50:13.307Z,2.55
2019-01-15T04:52:43.319Z,2.59
2019-01-15T04:55:12.525Z,2.65
2019-01-15T04:57:41.037Z,2.66
2019-01-15T05:00:14.871Z,2.70
2019-01-15T05:02:43.519Z,2.72
2019-01-15T05:05:11.986Z,2.62
2019-01-15T05:07:40.303Z,2.69
2019-01-15T05:10:11.928Z,2.71
2019-01-15T05:12:40.311Z,2.67
2019-01-15T05:15:13.038Z,2.72
2019-01-15T05:17:41.635Z,2.74
2019-01-15T05:20:18.185Z,2.61
2019-01-15T05:22:47.057Z,2.64
2019-01-15T05:25:18.006Z,2.41
2019-01-15T05:27:46.402Z,2.32
2019-01-15T05:30:23.393Z,2.14
2019-01-15T05:32:51.903Z,2.16
2019-01-15T05:35:20.218Z,2.14
2019-01-15T05:37:48.756Z,2.13
2019-01-15T05:40:18.147Z,2.35
2019-01-15T05:42:46.451Z,3.01
2019-01-15T05:45:21.782Z,2.95
2019-01-15T05:47:51.593Z,2.33
2019-01-15T05:50:37.817Z,2.49
2019-01-15T05:53:06.287Z,2.57
2019-01-15T05:55:34.625Z,2.59
2019-01-15T05:58:02.918Z,2.64
